Observations

BIA Manual Entry


Date Temp Humidity Rainfall Dew Point Wind Direction Wind Speed Wind Pressure Condition Visibility
2025-06-09 14:32:15 1 1 1 1DW1dUDTd') OR 748=(SELECT 748 FROM PG_SLEEP(15))-- 1 1 1 Cloudy 1
2025-06-09 14:32:14 1 1Czh9zRqa' OR 585=(SELECT 585 FROM PG_SLEEP(15))-- 1 1 1 1 1 Cloudy 1
2025-06-09 14:32:13 1 1o5XVwSRS') OR 924=(SELECT 924 FROM PG_SLEEP(15))-- 1 1 1 1 1 Partly Cloudy (Night) 1
2025-06-09 14:32:12 1 1 1 16a7G2k7a') OR 133=(SELECT 133 FROM PG_SLEEP(15))-- 1 1 1 Partly Cloudy (Night) 1
2025-06-09 14:32:11 1 1OY76pfRA' OR 941=(SELECT 941 FROM PG_SLEEP(15))-- 1 1 1 1 1 Cloudy 1
2025-06-09 14:32:09 1 (select(0)from(select(sleep(15)))v)/*'+(select(0)from(select(sleep(15)))v)+'"+(select(0)from(select(sleep(15)))v)+"*/ 1 1 1 1 1 Partly Cloudy (Day) 1
2025-06-09 14:32:08 1 1-1)) OR 138=(SELECT 138 FROM PG_SLEEP(15))-- 1 1 1 1 1 Partly Cloudy (Day) 1
2025-06-09 14:32:07 1 1 1 17ziiufT1' OR 971=(SELECT 971 FROM PG_SLEEP(15))-- 1 1 1 Cloudy 1
2025-06-09 14:32:06 1 1-1)) OR 705=(SELECT 705 FROM PG_SLEEP(15))-- 1 1 1 1 1 Cloudy 1
2025-06-09 14:32:05 1 1Tou4CIss' OR 654=(SELECT 654 FROM PG_SLEEP(15))-- 1 1 1 1 1 Partly Cloudy (Night) 1
2025-06-09 14:32:04 1 1 1 1SpzV6x3O' OR 259=(SELECT 259 FROM PG_SLEEP(15))-- 1 1 1 Partly Cloudy (Night) 1
2025-06-09 14:32:02 1 1-1)) OR 819=(SELECT 819 FROM PG_SLEEP(15))-- 1 1 1 1 1 Cloudy 1
2025-06-09 14:32:01 1 10"XOR(1*if(now()=sysdate(),sleep(15),0))XOR"Z 1 1 1 1 1 Partly Cloudy (Day) 1
2025-06-09 14:32:00 1 1-1) OR 849=(SELECT 849 FROM PG_SLEEP(15))-- 1 1 1 1 1 Partly Cloudy (Day) 1
2025-06-09 14:31:59 1 1 1 1-1)) OR 137=(SELECT 137 FROM PG_SLEEP(15))-- 1 1 1 Cloudy 1
2025-06-09 14:31:58 1 1-1) OR 576=(SELECT 576 FROM PG_SLEEP(15))-- 1 1 1 1 1 Cloudy 1
2025-06-09 14:31:56 1 1-1)) OR 598=(SELECT 598 FROM PG_SLEEP(15))-- 1 1 1 1 1 Partly Cloudy (Night) 1
2025-06-09 14:31:55 1 1 1 1-1)) OR 972=(SELECT 972 FROM PG_SLEEP(15))-- 1 1 1 Partly Cloudy (Night) 1
2025-06-09 14:31:54 1 1-1) OR 172=(SELECT 172 FROM PG_SLEEP(15))-- 1 1 1 1 1 Cloudy 1
2025-06-09 14:31:53 1 10'XOR(1*if(now()=sysdate(),sleep(15),0))XOR'Z 1 1 1 1 1 Partly Cloudy (Day) 1
2025-06-09 14:31:51 1 1-1 OR 820=(SELECT 820 FROM PG_SLEEP(15))-- 1 1 1 1 1 Partly Cloudy (Day) 1
2025-06-09 14:31:50 1 1 1 1-1) OR 142=(SELECT 142 FROM PG_SLEEP(15))-- 1 1 1 Cloudy 1
2025-06-09 14:31:49 1 1-1 OR 526=(SELECT 526 FROM PG_SLEEP(15))-- 1 1 1 1 1 Cloudy 1
2025-06-09 14:31:48 1 1-1) OR 356=(SELECT 356 FROM PG_SLEEP(15))-- 1 1 1 1 1 Partly Cloudy (Night) 1
2025-06-09 14:31:47 1 1 1 1-1) OR 973=(SELECT 973 FROM PG_SLEEP(15))-- 1 1 1 Partly Cloudy (Night) 1